createdAt,value
2019-02-15T00:01:55.671Z,99024.68
2019-02-15T00:07:13.484Z,99025.55
2019-02-15T00:12:31.715Z,99025.92
2019-02-15T00:18:11.368Z,99032.91
2019-02-15T00:23:29.905Z,99005.30
2019-02-15T00:28:47.663Z,99009.33
2019-02-15T00:34:05.888Z,99005.64
2019-02-15T00:39:24.011Z,98997.30
2019-02-15T00:44:42.215Z,99011.94
2019-02-15T00:50:19.450Z,99009.84
2019-02-15T00:55:52.025Z,99001.32
2019-02-15T01:01:28.448Z,99003.25
2019-02-15T01:07:11.113Z,98983.82
2019-02-15T01:12:37.325Z,98977.23
2019-02-15T01:17:54.982Z,98969.70
2019-02-15T01:23:12.381Z,98967.98
2019-02-15T01:28:37.824Z,98969.83
2019-02-15T01:34:05.781Z,98966.36
2019-02-15T01:39:45.295Z,98963.32
2019-02-15T01:45:16.135Z,98970.51
2019-02-15T01:50:33.533Z,98968.02
2019-02-15T01:55:50.978Z,98962.94
2019-02-15T02:01:08.349Z,98958.27
2019-02-15T02:06:26.791Z,98942.44
2019-02-15T02:11:45.025Z,98954.50
2019-02-15T02:17:04.234Z,98954.20
2019-02-15T02:22:21.988Z,98957.33
2019-02-15T02:27:39.231Z,98956.86
2019-02-15T02:32:57.357Z,98944.28
2019-02-15T02:38:14.998Z,98943.52
2019-02-15T02:43:32.602Z,98927.69
2019-02-15T02:48:50.120Z,98905.88
2019-02-15T02:54:07.982Z,98911.35
2019-02-15T02:59:25.595Z,98911.77
2019-02-15T03:04:43.140Z,98919.64
2019-02-15T03:10:01.015Z,98920.42
2019-02-15T03:15:18.623Z,98925.97
2019-02-15T03:20:36.554Z,98937.91
2019-02-15T03:25:53.990Z,98931.66
2019-02-15T03:31:11.530Z,98937.19
2019-02-15T03:36:46.945Z,98923.70
2019-02-15T03:42:04.619Z,98940.39
2019-02-15T03:47:24.648Z,98941.97
2019-02-15T03:52:46.562Z,98937.91
2019-02-15T03:58:04.831Z,98944.83
2019-02-15T04:03:22.585Z,98953.38
2019-02-15T04:08:40.377Z,98949.61
2019-02-15T04:13:58.248Z,98947.13
2019-02-15T04:19:15.678Z,98946.70
2019-02-15T04:24:33.285Z,98959.06
2019-02-15T04:29:51.212Z,98946.31
2019-02-15T04:35:08.996Z,98943.22
2019-02-15T04:40:27.096Z,98944.11
2019-02-15T04:45:44.569Z,98949.23
2019-02-15T04:51:02.279Z,98951.26
2019-02-15T04:56:19.829Z,98960.27
2019-02-15T05:01:37.910Z,98953.01
2019-02-15T05:06:55.584Z,98943.84
2019-02-15T05:12:14.864Z,98941.28
2019-02-15T05:17:32.528Z,98938.25
2019-02-15T05:22:50.922Z,98946.48
2019-02-15T05:28:09.171Z,98950.80
2019-02-15T05:33:26.695Z,98949.59
2019-02-15T05:38:44.206Z,98956.08
2019-02-15T05:44:01.925Z,98957.70
2019-02-15T05:49:19.905Z,98955.34
2019-02-15T05:54:37.130Z,98951.92
2019-02-15T05:59:54.524Z,98962.06
2019-02-15T06:05:12.161Z,98963.26
2019-02-15T06:10:29.924Z,98961.40
2019-02-15T06:15:47.733Z,98960.02
2019-02-15T06:21:05.452Z,98969.55
2019-02-15T06:26:22.806Z,98975.42
2019-02-15T06:31:40.302Z,98990.77
2019-02-15T06:36:57.673Z,98984.83
2019-02-15T06:42:15.203Z,98990.59
2019-02-15T06:47:33.293Z,98994.32
2019-02-15T06:52:51.255Z,99005.20
2019-02-15T06:58:09.182Z,99010.14
2019-02-15T07:03:45.859Z,99021.41
2019-02-15T07:09:03.085Z,99021.14
2019-02-15T07:14:21.011Z,99028.32
2019-02-15T07:19:38.505Z,99035.02
2019-02-15T07:24:56.886Z,99046.61
2019-02-15T07:30:15.650Z,99044.80
2019-02-15T07:35:32.475Z,99037.57
2019-02-15T07:40:49.837Z,99038.88
2019-02-15T07:46:07.415Z,99047.03
2019-02-15T07:51:25.783Z,99044.14
2019-02-15T07:56:44.085Z,99035.77
2019-02-15T08:02:02.302Z,99036.89
2019-02-15T08:07:19.172Z,99044.14
2019-02-15T08:12:36.417Z,99039.41
2019-02-15T08:17:54.375Z,99037.75
2019-02-15T08:23:11.686Z,99025.34
2019-02-15T08:28:29.772Z,99018.74
2019-02-15T08:33:47.404Z,99012.45
2019-02-15T08:39:06.106Z,99016.20
2019-02-15T08:44:24.136Z,99008.58
2019-02-15T08:49:41.847Z,99001.59
2019-02-15T08:54:59.523Z,98992.22
2019-02-15T09:00:17.823Z,98996.14
2019-02-15T09:05:35.801Z,99000.98
2019-02-15T09:10:53.574Z,99003.64
2019-02-15T09:16:10.887Z,98950.58
2019-02-15T09:21:28.831Z,98989.51
2019-02-15T09:26:49.214Z,98981.41
2019-02-15T09:32:06.600Z,98938.70
2019-02-15T09:37:24.610Z,98925.58
2019-02-15T09:42:42.508Z,98930.59
2019-02-15T09:48:00.072Z,98930.98
2019-02-15T09:53:18.793Z,98947.23
2019-02-15T09:58:36.295Z,98949.81
2019-02-15T10:03:55.308Z,98960.48
2019-02-15T10:09:12.425Z,98959.14
2019-02-15T10:14:30.782Z,98974.10
2019-02-15T10:19:49.136Z,98963.42
2019-02-15T10:25:07.311Z,98968.67
2019-02-15T10:30:25.493Z,98961.24
2019-02-15T10:35:43.393Z,98963.05
2019-02-15T10:41:00.809Z,98947.84
2019-02-15T10:46:18.779Z,98918.20
2019-02-15T10:51:36.333Z,98911.88
2019-02-15T10:56:53.894Z,98922.39
2019-02-15T11:02:13.454Z,98934.06
2019-02-15T11:07:31.314Z,98925.75
2019-02-15T11:12:49.030Z,98936.77
2019-02-15T11:18:06.986Z,98938.91
2019-02-15T11:23:25.003Z,98939.87
2019-02-15T11:28:42.831Z,98948.86
2019-02-15T11:34:01.047Z,98948.42
2019-02-15T11:39:18.878Z,98928.95
2019-02-15T11:44:36.243Z,98915.29
2019-02-15T11:49:54.352Z,98909.05
2019-02-15T11:55:12.205Z,98913.53
2019-02-15T12:00:32.485Z,98913.95
2019-02-15T12:05:50.473Z,98914.44
2019-02-15T12:11:07.963Z,98914.16
2019-02-15T12:16:25.781Z,98917.31
2019-02-15T12:21:43.314Z,98919.91
2019-02-15T12:27:01.146Z,98913.43
2019-02-15T12:32:18.922Z,98895.98
2019-02-15T12:37:37.381Z,98897.20
2019-02-15T12:42:54.914Z,98891.77
2019-02-15T12:48:13.143Z,98881.66
2019-02-15T12:53:30.765Z,98881.61
2019-02-15T12:58:48.525Z,98879.66
2019-02-15T13:04:06.393Z,98872.06
2019-02-15T13:09:24.244Z,98869.46
2019-02-15T13:14:41.971Z,98868.70
2019-02-15T13:19:59.650Z,98869.30
2019-02-15T13:25:17.005Z,98861.97
2019-02-15T13:30:34.657Z,98851.89
2019-02-15T13:35:53.095Z,98849.25
2019-02-15T13:41:10.609Z,98843.02
2019-02-15T13:46:27.975Z,98850.13
2019-02-15T13:51:45.510Z,98843.44
2019-02-15T13:57:03.727Z,98834.27
2019-02-15T14:02:21.288Z,98830.98
2019-02-15T14:07:38.859Z,98827.23
2019-02-15T14:12:57.822Z,98826.77
2019-02-15T14:18:15.638Z,98817.69
2019-02-15T14:23:33.256Z,98812.05
2019-02-15T14:28:51.207Z,98815.28
2019-02-15T14:34:09.011Z,98812.66
2019-02-15T14:39:26.832Z,98806.91
2019-02-15T14:44:45.180Z,98808.44
2019-02-15T14:50:03.505Z,98800.59
2019-02-15T14:55:21.418Z,98796.66
2019-02-15T15:00:39.085Z,98796.76
2019-02-15T15:05:59.178Z,98787.97
2019-02-15T15:11:17.092Z,98775.66
2019-02-15T15:16:34.917Z,98768.17
2019-02-15T15:21:52.921Z,98765.35
2019-02-15T15:27:11.001Z,98758.95
2019-02-15T15:32:30.184Z,98752.92
2019-02-15T15:37:48.687Z,98737.93
2019-02-15T15:43:06.326Z,98746.22
2019-02-15T15:48:24.231Z,98745.52
2019-02-15T15:53:43.721Z,98748.76
2019-02-15T15:59:01.978Z,98747.11
2019-02-15T16:04:19.912Z,98755.45
2019-02-15T16:09:37.533Z,98757.86
2019-02-15T16:14:55.583Z,98757.69
2019-02-15T16:20:14.233Z,98762.64
2019-02-15T16:25:31.757Z,98764.03
2019-02-15T16:30:50.158Z,98774.77
2019-02-15T16:36:08.849Z,98770.33
2019-02-15T16:41:26.771Z,98770.83
2019-02-15T16:46:47.115Z,98783.52
2019-02-15T16:52:04.449Z,98784.89
2019-02-15T16:57:22.563Z,98789.75
2019-02-15T17:02:40.548Z,98792.93
2019-02-15T17:07:58.877Z,98799.98
2019-02-15T17:13:25.977Z,98797.99
2019-02-15T17:18:51.397Z,98794.48
2019-02-15T17:24:02.122Z,98801.88
2019-02-15T17:29:19.909Z,98795.55
2019-02-15T17:34:38.072Z,98800.74
2019-02-15T17:39:55.837Z,98793.69
2019-02-15T17:45:14.112Z,98804.66
2019-02-15T17:50:31.566Z,98801.48
2019-02-15T17:55:49.925Z,98800.44
2019-02-15T18:01:08.157Z,98797.08
2019-02-15T18:06:25.877Z,98799.61
2019-02-15T18:11:44.875Z,98796.05
2019-02-15T18:17:03.052Z,98800.95
2019-02-15T18:22:21.387Z,98794.66
2019-02-15T18:27:39.827Z,98792.84
2019-02-15T18:32:59.398Z,98791.19
2019-02-15T18:38:17.130Z,98781.37
2019-02-15T18:43:35.366Z,98778.76
2019-02-15T18:48:53.499Z,98776.89
2019-02-15T18:54:20.758Z,98777.70
2019-02-15T18:59:38.391Z,98775.13
2019-02-15T19:05:01.334Z,98780.05
2019-02-15T19:10:20.059Z,98772.14
2019-02-15T19:15:41.981Z,98769.19
2019-02-15T19:21:01.977Z,98770.78
2019-02-15T19:26:17.913Z,98765.50
2019-02-15T19:31:37.196Z,98765.20
2019-02-15T19:36:56.173Z,98771.52
2019-02-15T19:42:18.379Z,98771.95
2019-02-15T19:47:40.132Z,98774.41
2019-02-15T19:52:57.343Z,98771.64
2019-02-15T19:58:15.849Z,98772.49
2019-02-15T20:03:33.590Z,98769.88
2019-02-15T20:21:41.301Z,98763.14
2019-02-15T20:27:00.112Z,98772.88
2019-02-15T20:32:19.289Z,98771.66
2019-02-15T20:37:39.111Z,98767.66
2019-02-15T20:42:57.435Z,98767.09
2019-02-15T20:48:17.809Z,98761.58
2019-02-15T20:53:36.507Z,98760.84
2019-02-15T20:58:55.352Z,98758.76
2019-02-15T21:04:13.537Z,98757.86
2019-02-15T21:09:31.641Z,98754.53
2019-02-15T21:14:50.104Z,98754.45
2019-02-15T21:20:09.200Z,98741.99
2019-02-15T21:25:27.748Z,98744.22
2019-02-15T21:30:45.298Z,98740.38
2019-02-15T21:36:03.106Z,98679.31
2019-02-15T21:41:20.760Z,98718.78
2019-02-15T21:46:40.122Z,98732.38
2019-02-15T21:51:58.203Z,98728.08
2019-02-15T21:57:16.043Z,98728.25
2019-02-15T22:02:34.080Z,98726.38
2019-02-15T22:07:51.835Z,98736.13
2019-02-15T22:13:10.269Z,98729.08
2019-02-15T22:18:27.927Z,98725.01
2019-02-15T22:23:47.047Z,98720.98
2019-02-15T22:29:05.209Z,98722.31
2019-02-15T22:34:23.655Z,98725.53
2019-02-15T22:39:41.842Z,98720.78
2019-02-15T22:45:09.233Z,98714.30
2019-02-15T22:50:35.649Z,98712.53
2019-02-15T22:55:45.081Z,98711.39
2019-02-15T23:01:16.718Z,98721.36
2019-02-15T23:06:34.638Z,98713.85
2019-02-15T23:11:52.186Z,98716.59
2019-02-15T23:17:10.172Z,98714.22
2019-02-15T23:22:27.615Z,98714.06
2019-02-15T23:27:45.786Z,98711.73
2019-02-15T23:33:03.947Z,98707.33
2019-02-15T23:38:21.755Z,98708.62
2019-02-15T23:43:40.066Z,98702.08
2019-02-15T23:48:57.536Z,98702.73
2019-02-15T23:54:15.107Z,98647.05
2019-02-15T23:59:32.602Z,98696.36
